Time;durP1;ratioP1;P1;durP2;ratioP2;P2;SDS_P1;SDS_P2;PMS_P1;PMS_P2;Temp;Humidity;BMP_temperature;BMP_pressure;BME280_temperature;BME280_humidity;BME280_pressure;Samples;Min_cycle;Max_cycle;Signal;HPM_P1;HPM_P2
2021/12/31 00:02:09;;;;;;;7.15;4.95;;;14.60;99.90;;;;;;4974409;28;20055;-67
2021/12/31 00:04:34;;;;;;;8.13;6.00;;;14.60;99.90;;;;;;4972659;28;20070;-67
2021/12/31 00:07:00;;;;;;;6.32;4.75;;;14.60;99.90;;;;;;4972164;28;20059;-67
2021/12/31 00:09:26;;;;;;;7.65;4.93;;;14.60;99.90;;;;;;4972082;28;20038;-67
2021/12/31 00:11:51;;;;;;;6.00;4.65;;;14.60;99.90;;;;;;4971466;28;20584;-67
2021/12/31 00:14:19;;;;;;;7.07;4.50;;;14.60;99.90;;;;;;4973519;28;20027;-66
2021/12/31 00:16:45;;;;;;;6.47;4.70;;;14.60;99.90;;;;;;4971639;28;20069;-66
2021/12/31 00:19:11;;;;;;;6.70;5.00;;;14.60;99.90;;;;;;4972687;28;20442;-67
2021/12/31 00:21:37;;;;;;;6.65;4.97;;;14.60;99.90;;;;;;4971754;28;20026;-66
2021/12/31 00:24:04;;;;;;;6.57;5.05;;;14.60;99.90;;;;;;4972505;28;20398;-66
2021/12/31 00:26:29;;;;;;;5.72;4.88;;;14.60;99.90;;;;;;4971554;28;20031;-66
2021/12/31 00:28:55;;;;;;;9.30;5.40;;;14.60;99.90;;;;;;4962502;28;20060;-66
2021/12/31 00:31:20;;;;;;;8.13;4.90;;;14.60;99.90;;;;;;4967811;28;20030;-66
2021/12/31 00:33:46;;;;;;;6.40;4.95;;;14.50;99.90;;;;;;4971428;28;20121;-66
2021/12/31 00:36:11;;;;;;;6.75;5.10;;;14.60;99.90;;;;;;4972633;28;20046;-66
2021/12/31 00:38:37;;;;;;;7.47;5.25;;;14.60;99.90;;;;;;4971899;28;20054;-66
2021/12/31 00:41:02;;;;;;;8.40;5.35;;;14.50;99.90;;;;;;4972181;28;20508;-66
2021/12/31 00:43:27;;;;;;;7.57;6.25;;;14.60;99.90;;;;;;4971787;28;20031;-66
2021/12/31 00:45:53;;;;;;;8.40;5.35;;;14.60;99.90;;;;;;4972668;28;20026;-66
2021/12/31 00:48:19;;;;;;;9.27;6.28;;;14.60;99.90;;;;;;4972257;28;20031;-67
2021/12/31 00:50:44;;;;;;;7.90;6.32;;;14.60;99.90;;;;;;4972276;28;20034;-66
2021/12/31 00:53:10;;;;;;;8.10;5.90;;;14.60;99.90;;;;;;4970769;28;20098;-66
2021/12/31 00:55:36;;;;;;;10.18;5.68;;;14.60;99.90;;;;;;4966747;28;20027;-66
2021/12/31 00:58:02;;;;;;;7.45;5.85;;;14.60;99.90;;;;;;4971842;28;20038;-66
2021/12/31 01:00:28;;;;;;;7.63;6.30;;;14.60;99.90;;;;;;4972350;28;20582;-66
2021/12/31 01:02:54;;;;;;;7.18;5.88;;;14.60;99.90;;;;;;4971397;28;20035;-67
2021/12/31 01:05:20;;;;;;;9.35;6.30;;;14.60;99.90;;;;;;4972634;28;20034;-67
2021/12/31 01:07:45;;;;;;;9.27;6.32;;;14.60;99.90;;;;;;4970893;28;20509;-66
2021/12/31 01:10:15;;;;;;;7.25;6.18;;;14.60;99.90;;;;;;4972601;28;20359;-67
2021/12/31 01:12:41;;;;;;;9.70;6.13;;;14.60;99.90;;;;;;4971378;28;20043;-66
2021/12/31 01:15:11;;;;;;;8.60;5.53;;;14.60;99.90;;;;;;4971898;28;20786;-66
2021/12/31 01:17:47;;;;;;;6.50;5.30;;;14.60;99.90;;;;;;4971784;28;20031;-66
2021/12/31 01:20:15;;;;;;;6.75;5.63;;;14.60;99.90;;;;;;4972055;28;20092;-66
2021/12/31 01:22:41;;;;;;;8.98;5.72;;;14.70;99.90;;;;;;4971429;28;20033;-66
2021/12/31 01:25:07;;;;;;;7.55;5.10;;;14.60;99.90;;;;;;4970815;28;20026;-66
2021/12/31 01:27:34;;;;;;;6.75;5.05;;;14.60;99.90;;;;;;4964870;28;20063;-66
2021/12/31 01:30:00;;;;;;;8.70;5.65;;;14.60;99.90;;;;;;4974622;28;20125;-66
2021/12/31 01:32:26;;;;;;;7.57;5.35;;;14.70;99.90;;;;;;4974737;28;20117;-65
2021/12/31 01:34:52;;;;;;;7.70;5.28;;;14.70;99.90;;;;;;4975468;28;20027;-65
2021/12/31 01:37:17;;;;;;;7.28;4.63;;;14.70;99.90;;;;;;4974270;28;20015;-65
2021/12/31 01:39:43;;;;;;;8.00;5.47;;;14.60;99.90;;;;;;4974963;28;20058;-66
2021/12/31 01:42:13;;;;;;;6.57;4.90;;;14.70;99.90;;;;;;4974964;28;20023;-66
2021/12/31 01:44:46;;;;;;;6.55;4.68;;;14.60;99.90;;;;;;4975660;28;20073;-66
2021/12/31 01:47:15;;;;;;;6.03;4.72;;;14.70;99.90;;;;;;4974707;28;20022;-66
2021/12/31 01:49:54;;;;;;;8.20;4.78;;;14.60;99.90;;;;;;4975082;28;20034;-66
2021/12/31 01:52:20;;;;;;;5.18;4.38;;;14.70;99.90;;;;;;4970128;28;20081;-65
2021/12/31 01:54:46;;;;;;;6.13;4.90;;;14.70;99.90;;;;;;4965929;28;20065;-65
2021/12/31 01:57:13;;;;;;;7.72;4.95;;;14.70;99.90;;;;;;4974463;28;20027;-65
2021/12/31 01:59:40;;;;;;;5.25;4.07;;;14.70;99.90;;;;;;4975323;28;20030;-67
2021/12/31 02:02:08;;;;;;;5.25;4.20;;;14.70;99.90;;;;;;4970010;28;20135;-67
2021/12/31 02:04:37;;;;;;;6.68;4.35;;;14.70;99.90;;;;;;4956056;28;20071;-67
2021/12/31 02:07:03;;;;;;;5.35;4.03;;;14.70;99.90;;;;;;4974393;28;20042;-67
2021/12/31 02:09:32;;;;;;;6.25;4.68;;;14.70;99.90;;;;;;4974185;28;20030;-67
2021/12/31 02:11:58;;;;;;;6.43;3.85;;;14.70;99.90;;;;;;4974317;28;20604;-67
2021/12/31 02:14:24;;;;;;;5.22;4.15;;;14.70;99.90;;;;;;4975117;28;20049;-67
2021/12/31 02:16:50;;;;;;;5.38;3.70;;;14.70;99.90;;;;;;4972701;28;20031;-67
2021/12/31 02:19:25;;;;;;;5.18;3.85;;;14.70;99.90;;;;;;4974160;28;20070;-67
2021/12/31 02:21:51;;;;;;;5.05;3.97;;;14.70;99.90;;;;;;4974993;28;20134;-67
2021/12/31 02:24:18;;;;;;;4.57;3.55;;;14.60;99.90;;;;;;4974513;28;20087;-67
2021/12/31 02:26:43;;;;;;;6.63;4.40;;;14.70;99.90;;;;;;4973567;28;20031;-67
2021/12/31 02:29:09;;;;;;;7.07;4.30;;;14.70;99.90;;;;;;4975511;28;20018;-67
2021/12/31 02:31:34;;;;;;;7.13;4.32;;;14.60;99.90;;;;;;4973925;28;20386;-67
2021/12/31 02:34:00;;;;;;;7.10;4.25;;;14.60;99.90;;;;;;4975002;28;20035;-67
2021/12/31 02:36:25;;;;;;;5.47;4.38;;;14.60;99.90;;;;;;4973249;28;20023;-67
2021/12/31 02:38:51;;;;;;;8.80;4.97;;;14.70;99.90;;;;;;4963581;28;20534;-67
2021/12/31 02:41:16;;;;;;;6.38;4.53;;;14.60;99.90;;;;;;4971328;28;20034;-67
2021/12/31 02:43:42;;;;;;;5.90;4.15;;;14.70;99.90;;;;;;4973929;28;20038;-67
2021/12/31 02:46:08;;;;;;;6.53;5.07;;;14.70;99.90;;;;;;4975195;28;20030;-67
2021/12/31 02:48:33;;;;;;;10.05;5.25;;;14.70;99.90;;;;;;4971681;28;20397;-67
2021/12/31 02:51:00;;;;;;;8.88;5.03;;;14.70;99.90;;;;;;4974293;28;20027;-67
2021/12/31 02:53:35;;;;;;;6.60;4.53;;;14.70;99.90;;;;;;4971823;28;20035;-67
2021/12/31 02:56:08;;;;;;;7.75;4.65;;;14.70;99.90;;;;;;4974033;28;20138;-66
2021/12/31 02:58:34;;;;;;;6.75;5.32;;;14.70;99.90;;;;;;4973463;28;20034;-66
2021/12/31 03:00:59;;;;;;;7.63;5.50;;;14.70;99.90;;;;;;4973882;28;20039;-66
2021/12/31 03:03:25;;;;;;;7.68;5.55;;;14.70;99.90;;;;;;4973289;28;20118;-66
2021/12/31 03:05:54;;;;;;;6.85;5.20;;;14.70;99.90;;;;;;4973302;28;20030;-66
2021/12/31 03:08:27;;;;;;;6.40;5.13;;;14.70;99.90;;;;;;4973242;28;20027;-66
2021/12/31 03:10:55;;;;;;;7.28;5.65;;;14.70;99.90;;;;;;4974236;28;20027;-66
2021/12/31 03:13:22;;;;;;;7.18;5.00;;;14.70;99.90;;;;;;4973203;28;20039;-67
2021/12/31 03:15:48;;;;;;;7.38;5.20;;;14.70;99.90;;;;;;4973658;28;20029;-67
2021/12/31 03:18:15;;;;;;;7.43;5.97;;;14.70;99.90;;;;;;4973115;28;20082;-66
2021/12/31 03:20:43;;;;;;;8.60;6.22;;;14.70;99.90;;;;;;4973220;28;20054;-67
2021/12/31 03:23:09;;;;;;;8.38;5.90;;;14.70;99.90;;;;;;4973166;28;20042;-67
2021/12/31 03:25:35;;;;;;;7.15;5.70;;;14.70;99.90;;;;;;4973713;28;20034;-66
2021/12/31 03:28:03;;;;;;;6.97;5.28;;;14.70;99.90;;;;;;4971367;28;20564;-67
2021/12/31 03:30:28;;;;;;;7.82;5.47;;;14.70;99.90;;;;;;4973320;28;20390;-66
2021/12/31 03:32:54;;;;;;;8.90;6.20;;;14.70;99.90;;;;;;4971034;28;20047;-66
2021/12/31 03:35:19;;;;;;;7.63;6.13;;;14.70;99.90;;;;;;4969672;28;20027;-66
2021/12/31 03:37:45;;;;;;;8.60;5.95;;;14.70;99.90;;;;;;4956006;28;20050;-67
2021/12/31 03:40:11;;;;;;;7.15;5.70;;;14.70;99.90;;;;;;4973863;28;20026;-67
2021/12/31 03:42:37;;;;;;;7.47;5.90;;;14.70;99.90;;;;;;4972630;28;20383;-67
2021/12/31 03:45:03;;;;;;;8.02;6.15;;;14.70;99.90;;;;;;4955997;28;20031;-66
2021/12/31 03:47:29;;;;;;;7.57;5.43;;;14.70;99.90;;;;;;4973141;28;20034;-67
2021/12/31 03:49:54;;;;;;;8.45;5.82;;;14.70;99.90;;;;;;4968275;28;20035;-66
2021/12/31 03:52:20;;;;;;;8.52;6.53;;;14.70;99.90;;;;;;4958928;28;20038;-67
2021/12/31 03:54:45;;;;;;;7.90;6.50;;;14.70;99.90;;;;;;4972535;28;20034;-67
2021/12/31 03:57:11;;;;;;;7.95;5.97;;;14.80;99.90;;;;;;4973289;28;20023;-66
2021/12/31 03:59:36;;;;;;;7.07;5.20;;;14.80;99.90;;;;;;4972507;28;20089;-66
2021/12/31 04:02:02;;;;;;;8.65;6.25;;;14.80;99.90;;;;;;4972874;28;20046;-66
2021/12/31 04:04:27;;;;;;;8.23;6.20;;;14.80;99.90;;;;;;4972670;28;20035;-66
2021/12/31 04:06:53;;;;;;;6.90;5.53;;;14.80;99.90;;;;;;4957082;28;20038;-66
2021/12/31 04:09:18;;;;;;;9.88;6.75;;;14.70;99.90;;;;;;4954547;28;20078;-66
2021/12/31 04:11:44;;;;;;;8.85;5.50;;;14.80;99.90;;;;;;4972814;28;20077;-65
2021/12/31 04:14:09;;;;;;;7.70;5.28;;;14.80;99.90;;;;;;4972321;28;20040;-66
2021/12/31 04:16:35;;;;;;;7.25;5.60;;;14.70;99.90;;;;;;4971759;28;20034;-65
2021/12/31 04:19:01;;;;;;;6.93;5.38;;;14.80;99.90;;;;;;4972175;28;20088;-66
2021/12/31 04:21:27;;;;;;;6.97;5.78;;;14.80;99.90;;;;;;4972837;28;20031;-65
2021/12/31 04:24:05;;;;;;;9.10;5.75;;;14.80;99.90;;;;;;4972237;28;20085;-65
2021/12/31 04:26:31;;;;;;;7.88;5.10;;;14.80;99.90;;;;;;4971175;28;20034;-66
2021/12/31 04:28:57;;;;;;;8.00;5.68;;;14.80;99.90;;;;;;4971813;28;20488;-65
2021/12/31 04:31:23;;;;;;;9.70;6.05;;;14.80;99.90;;;;;;4971875;28;20126;-66
2021/12/31 04:33:49;;;;;;;6.95;5.38;;;14.80;99.90;;;;;;4963183;28;20063;-66
2021/12/31 04:36:14;;;;;;;7.30;5.22;;;14.80;99.90;;;;;;4972761;28;20065;-66
2021/12/31 04:38:40;;;;;;;7.20;5.00;;;14.80;99.90;;;;;;4972058;28;20038;-65
2021/12/31 04:41:05;;;;;;;7.32;5.32;;;14.80;99.90;;;;;;4972802;28;20019;-66
2021/12/31 04:43:31;;;;;;;6.00;4.93;;;14.80;99.90;;;;;;4972179;28;20451;-66
2021/12/31 04:45:56;;;;;;;7.93;5.38;;;14.80;99.90;;;;;;4972212;28;20402;-66
2021/12/31 04:48:22;;;;;;;6.13;5.05;;;14.80;99.90;;;;;;4966379;28;20101;-65
2021/12/31 04:50:48;;;;;;;5.88;4.20;;;14.80;99.90;;;;;;4974133;28;20023;-66
2021/12/31 04:53:14;;;;;;;5.57;4.18;;;14.80;99.90;;;;;;4961346;28;20043;-65
2021/12/31 04:55:39;;;;;;;5.45;4.60;;;14.80;99.90;;;;;;4970636;28;20069;-66
2021/12/31 04:58:05;;;;;;;5.22;4.25;;;14.80;99.90;;;;;;4970213;28;20059;-66
2021/12/31 05:00:30;;;;;;;4.93;3.65;;;14.80;99.90;;;;;;4972923;28;20042;-67
2021/12/31 05:02:56;;;;;;;5.63;4.07;;;14.70;99.90;;;;;;4967531;28;20110;-67
2021/12/31 05:05:21;;;;;;;5.57;3.63;;;14.70;99.90;;;;;;4961992;28;20126;-67
2021/12/31 05:07:47;;;;;;;4.70;3.55;;;14.70;99.90;;;;;;4958584;28;20483;-67
2021/12/31 05:10:14;;;;;;;4.15;3.65;;;14.70;99.90;;;;;;4976340;28;20027;-67
2021/12/31 05:12:40;;;;;;;4.63;3.40;;;14.70;99.90;;;;;;4974797;28;20498;-67
2021/12/31 05:15:08;;;;;;;4.15;3.60;;;14.70;99.90;;;;;;4957140;28;20031;-68
2021/12/31 05:17:34;;;;;;;5.85;3.83;;;14.70;99.90;;;;;;4956382;28;20027;-68
2021/12/31 05:20:00;;;;;;;4.82;3.63;;;14.70;99.90;;;;;;4975848;28;20019;-68
2021/12/31 05:22:26;;;;;;;5.25;3.30;;;14.70;99.90;;;;;;4976036;28;20031;-68
2021/12/31 05:24:51;;;;;;;5.75;3.22;;;14.70;99.90;;;;;;4974929;28;20054;-68
2021/12/31 05:27:17;;;;;;;4.28;3.13;;;14.70;99.90;;;;;;4975418;28;20266;-68
2021/12/31 05:29:42;;;;;;;4.32;3.53;;;14.70;99.90;;;;;;4963572;28;20193;-68
2021/12/31 05:32:08;;;;;;;4.47;3.00;;;14.70;99.90;;;;;;4974142;28;20041;-68
2021/12/31 05:34:33;;;;;;;5.07;3.35;;;14.70;99.90;;;;;;4974548;28;20043;-68
2021/12/31 05:36:59;;;;;;;5.80;3.28;;;14.70;99.90;;;;;;4975139;28;20482;-68
2021/12/31 05:39:25;;;;;;;3.65;3.15;;;14.70;99.90;;;;;;4974421;28;20478;-68
2021/12/31 05:41:52;;;;;;;4.80;3.22;;;14.70;99.90;;;;;;4975193;28;20034;-68
2021/12/31 05:44:18;;;;;;;4.22;3.28;;;14.70;99.90;;;;;;4974804;28;20486;-68
2021/12/31 05:46:48;;;;;;;4.30;3.28;;;14.70;99.90;;;;;;4975043;28;20109;-67
2021/12/31 05:49:13;;;;;;;7.20;3.47;;;14.80;99.90;;;;;;4974583;28;20039;-69
2021/12/31 05:51:39;;;;;;;6.88;3.33;;;14.80;99.90;;;;;;4975155;28;20023;-69
2021/12/31 05:54:04;;;;;;;4.65;3.03;;;14.70;99.90;;;;;;4969595;28;20461;-68
2021/12/31 05:56:30;;;;;;;3.97;3.42;;;14.80;99.90;;;;;;4955829;28;20503;-67
2021/12/31 05:58:55;;;;;;;5.40;3.15;;;14.70;99.90;;;;;;4966046;28;20106;-68
2021/12/31 06:01:21;;;;;;;5.43;3.13;;;14.70;99.90;;;;;;4973513;28;20062;-67
2021/12/31 06:03:46;;;;;;;3.63;2.75;;;14.70;99.90;;;;;;4974165;28;20493;-67
2021/12/31 06:06:12;;;;;;;3.78;2.83;;;14.70;99.90;;;;;;4975123;28;20038;-67
2021/12/31 06:08:37;;;;;;;5.20;3.15;;;14.80;99.90;;;;;;4974105;28;20019;-67
2021/12/31 06:11:03;;;;;;;5.80;2.92;;;14.70;99.90;;;;;;4972994;28;20042;-68
2021/12/31 06:13:29;;;;;;;3.92;3.40;;;14.70;99.90;;;;;;4966935;28;20031;-67
2021/12/31 06:15:58;;;;;;;6.93;3.33;;;14.70;99.90;;;;;;4954989;28;20530;-67
2021/12/31 06:18:25;;;;;;;4.75;3.38;;;14.70;99.90;;;;;;4960502;28;20034;-67
2021/12/31 06:20:51;;;;;;;3.50;2.90;;;14.70;99.90;;;;;;4974915;28;20019;-68
2021/12/31 06:23:16;;;;;;;3.60;3.08;;;14.70;99.90;;;;;;4968665;28;20078;-68
2021/12/31 06:25:42;;;;;;;4.15;3.70;;;14.70;99.90;;;;;;4954771;28;20173;-68
2021/12/31 06:28:08;;;;;;;7.15;3.95;;;14.70;99.90;;;;;;4957966;28;20023;-67
2021/12/31 06:30:33;;;;;;;4.30;3.60;;;14.70;99.90;;;;;;4970426;28;20025;-67
2021/12/31 06:33:00;;;;;;;5.25;3.20;;;14.70;99.90;;;;;;4973377;28;20061;-66
2021/12/31 06:35:26;;;;;;;4.15;3.42;;;14.70;99.90;;;;;;4974993;28;20031;-66
2021/12/31 06:37:53;;;;;;;6.15;4.15;;;14.70;99.90;;;;;;4973061;28;20552;-66
2021/12/31 06:40:19;;;;;;;5.70;3.63;;;14.70;99.90;;;;;;4974619;28;20085;-67
2021/12/31 06:42:45;;;;;;;5.60;3.88;;;14.70;99.90;;;;;;4973366;28;20082;-67
2021/12/31 06:45:10;;;;;;;5.25;3.88;;;14.70;99.90;;;;;;4974513;28;20046;-67
2021/12/31 06:47:36;;;;;;;4.80;3.50;;;14.70;99.90;;;;;;4973462;28;20023;-67
2021/12/31 06:50:02;;;;;;;4.25;3.50;;;14.70;99.90;;;;;;4974700;28;20531;-67
2021/12/31 06:52:28;;;;;;;6.25;3.65;;;14.70;99.90;;;;;;4962983;28;20028;-67
2021/12/31 06:54:53;;;;;;;5.78;3.47;;;14.70;99.90;;;;;;4958629;28;20379;-67
2021/12/31 06:57:19;;;;;;;6.80;4.32;;;14.70;99.90;;;;;;4964041;28;20038;-67
2021/12/31 06:59:44;;;;;;;4.60;3.20;;;14.70;99.90;;;;;;4973458;28;20529;-66
2021/12/31 07:02:10;;;;;;;4.10;3.25;;;14.80;99.90;;;;;;4973533;28;20050;-68
2021/12/31 07:04:35;;;;;;;4.13;3.13;;;14.70;99.90;;;;;;4972770;28;20031;-67
2021/12/31 07:07:01;;;;;;;4.82;3.20;;;14.80;99.90;;;;;;4973917;28;20370;-67
2021/12/31 07:09:27;;;;;;;4.53;3.42;;;14.80;99.90;;;;;;4960462;28;20058;-67
2021/12/31 07:11:53;;;;;;;6.03;3.85;;;14.80;99.90;;;;;;4954387;28;20031;-67
2021/12/31 07:14:18;;;;;;;6.82;4.03;;;14.80;99.90;;;;;;4964541;28;20038;-65
2021/12/31 07:16:43;;;;;;;5.43;3.97;;;14.80;99.90;;;;;;4952598;28;20503;-66
2021/12/31 07:19:09;;;;;;;5.07;3.38;;;14.80;99.90;;;;;;4954345;28;20030;-63
2021/12/31 07:21:34;;;;;;;4.28;3.15;;;14.80;99.90;;;;;;4952601;28;20019;-64
2021/12/31 07:24:00;;;;;;;5.15;3.53;;;14.80;99.90;;;;;;4953843;28;20034;-64
2021/12/31 07:26:25;;;;;;;4.47;3.75;;;14.80;99.90;;;;;;4953495;28;21508;-64
2021/12/31 07:28:51;;;;;;;4.60;3.45;;;14.90;99.90;;;;;;4960564;28;20051;-64
2021/12/31 07:31:16;;;;;;;4.75;3.22;;;14.80;99.90;;;;;;4953497;28;20038;-64
2021/12/31 07:33:42;;;;;;;9.38;3.30;;;14.80;99.90;;;;;;4953304;28;20050;-64
2021/12/31 07:36:08;;;;;;;4.60;3.50;;;14.90;99.90;;;;;;4951302;28;20475;-64
2021/12/31 07:38:37;;;;;;;4.88;3.45;;;14.90;99.90;;;;;;4953631;28;20046;-65
2021/12/31 07:41:03;;;;;;;5.40;3.17;;;14.90;99.90;;;;;;4952509;28;20034;-63
2021/12/31 07:43:29;;;;;;;4.63;3.45;;;14.90;99.90;;;;;;4953522;28;20504;-64
2021/12/31 07:45:55;;;;;;;3.80;3.25;;;14.90;99.90;;;;;;4952531;28;20027;-64
2021/12/31 07:48:21;;;;;;;5.10;3.22;;;15.00;99.90;;;;;;4952355;28;20053;-63
2021/12/31 07:50:48;;;;;;;5.32;3.88;;;15.00;99.90;;;;;;4952165;28;20041;-64
2021/12/31 07:53:14;;;;;;;7.65;3.45;;;15.00;99.90;;;;;;4953013;28;20070;-65
2021/12/31 07:55:39;;;;;;;5.53;3.83;;;15.00;99.90;;;;;;4952283;28;20085;-64
2021/12/31 07:58:05;;;;;;;4.13;3.35;;;15.00;99.90;;;;;;4952717;28;20173;-64
2021/12/31 08:00:31;;;;;;;4.68;3.67;;;15.00;99.90;;;;;;4951989;28;20490;-64
2021/12/31 08:02:58;;;;;;;6.05;2.80;;;15.10;99.90;;;;;;4953282;28;20038;-64
2021/12/31 08:05:24;;;;;;;6.38;3.10;;;15.10;99.90;;;;;;4952165;28;20089;-64
2021/12/31 08:07:50;;;;;;;4.07;2.92;;;15.20;99.90;;;;;;4952051;28;20038;-65
2021/12/31 08:10:15;;;;;;;3.95;3.05;;;15.10;99.90;;;;;;4952417;28;20031;-64
2021/12/31 08:12:41;;;;;;;3.92;2.78;;;15.10;99.90;;;;;;4951912;28;20039;-65
2021/12/31 08:15:07;;;;;;;6.85;3.30;;;15.20;99.90;;;;;;4950003;28;20126;-65
2021/12/31 08:17:32;;;;;;;5.60;2.80;;;15.20;99.90;;;;;;4953679;28;20113;-65
2021/12/31 08:19:58;;;;;;;3.70;2.80;;;15.20;99.90;;;;;;4952123;28;20490;-65
2021/12/31 08:22:24;;;;;;;4.75;2.50;;;15.20;99.90;;;;;;4953107;28;20109;-66
2021/12/31 08:24:50;;;;;;;4.10;2.90;;;15.20;99.90;;;;;;4955021;28;20045;-65
2021/12/31 08:27:16;;;;;;;3.88;2.80;;;15.20;99.90;;;;;;4955198;28;20023;-65
2021/12/31 08:29:42;;;;;;;5.30;2.70;;;15.20;99.90;;;;;;4956987;28;20046;-65
2021/12/31 08:32:07;;;;;;;5.10;3.00;;;15.20;99.90;;;;;;4958208;28;20684;-66
2021/12/31 08:34:33;;;;;;;4.20;2.60;;;15.30;99.90;;;;;;4962540;28;20030;-66
2021/12/31 08:36:59;;;;;;;5.55;2.83;;;15.30;99.90;;;;;;4955890;28;20501;-66
2021/12/31 08:39:24;;;;;;;4.30;2.63;;;15.30;99.90;;;;;;4955242;28;20034;-65
2021/12/31 08:41:50;;;;;;;4.18;2.70;;;15.30;99.90;;;;;;4956716;28;20443;-65
2021/12/31 08:44:16;;;;;;;4.50;2.70;;;15.30;99.90;;;;;;4958414;28;20473;-66
2021/12/31 08:46:43;;;;;;;4.53;2.38;;;15.30;99.90;;;;;;4956904;28;20042;-66
2021/12/31 08:49:08;;;;;;;3.97;2.20;;;15.40;99.90;;;;;;4956404;28;20031;-66
2021/12/31 08:51:34;;;;;;;3.55;2.20;;;15.30;99.90;;;;;;4957172;28;20141;-66
2021/12/31 08:54:00;;;;;;;5.03;2.38;;;15.40;99.80;;;;;;4955086;28;20560;-66
2021/12/31 08:56:26;;;;;;;3.97;2.30;;;15.30;99.80;;;;;;4956962;28;20031;-66
2021/12/31 08:58:51;;;;;;;4.25;2.40;;;15.40;99.80;;;;;;4956343;28;20493;-66
2021/12/31 09:01:17;;;;;;;4.10;2.42;;;15.40;99.70;;;;;;4955828;28;20054;-66
2021/12/31 09:03:42;;;;;;;4.18;2.42;;;15.40;99.70;;;;;;4956550;28;20145;-66
2021/12/31 09:06:08;;;;;;;3.05;1.77;;;15.40;99.60;;;;;;4954197;28;20030;-66
2021/12/31 09:08:34;;;;;;;2.58;2.05;;;15.50;99.60;;;;;;4958093;28;20035;-66
2021/12/31 09:11:01;;;;;;;3.22;1.98;;;15.40;99.50;;;;;;4955048;28;20460;-65
2021/12/31 09:13:28;;;;;;;4.35;1.90;;;15.40;99.50;;;;;;4955754;28;20039;-67
2021/12/31 09:15:55;;;;;;;4.88;2.22;;;15.40;99.50;;;;;;4955867;28;20039;-66
2021/12/31 09:18:21;;;;;;;5.38;2.42;;;15.40;99.50;;;;;;4956806;28;20034;-66
2021/12/31 09:20:46;;;;;;;3.58;2.08;;;15.40;99.50;;;;;;4955822;28;20034;-66
2021/12/31 09:23:12;;;;;;;3.67;2.03;;;15.40;99.50;;;;;;4955060;28;20035;-66
2021/12/31 09:25:37;;;;;;;4.68;2.58;;;15.50;99.40;;;;;;4954708;28;20486;-66
2021/12/31 09:28:03;;;;;;;5.00;2.45;;;15.50;99.40;;;;;;4956601;28;20035;-66
2021/12/31 09:30:29;;;;;;;3.70;1.88;;;15.50;99.40;;;;;;4956378;28;20026;-67
2021/12/31 09:32:55;;;;;;;4.78;1.90;;;15.50;99.30;;;;;;4960500;28;20054;-66
2021/12/31 09:35:20;;;;;;;2.38;1.83;;;15.50;99.30;;;;;;4954161;28;20030;-66
2021/12/31 09:37:46;;;;;;;3.13;1.67;;;15.50;99.20;;;;;;4956755;28;20573;-66
2021/12/31 09:40:15;;;;;;;3.90;2.47;;;15.40;99.10;;;;;;4956072;28;20022;-66
2021/12/31 09:42:50;;;;;;;2.70;1.73;;;15.40;99.10;;;;;;4956649;28;20042;-65
2021/12/31 09:45:16;;;;;;;5.50;1.83;;;15.50;99.10;;;;;;4957151;28;20426;-66
2021/12/31 09:47:42;;;;;;;3.20;2.10;;;15.50;99.10;;;;;;4959043;28;20023;-66
2021/12/31 09:50:08;;;;;;;3.78;2.00;;;15.50;99.10;;;;;;4959823;28;20038;-66
2021/12/31 09:52:35;;;;;;;3.83;1.85;;;15.50;99.10;;;;;;4961013;28;20033;-66
2021/12/31 09:55:00;;;;;;;2.00;1.50;;;15.50;99.00;;;;;;4961815;28;20038;-66
2021/12/31 09:57:26;;;;;;;3.35;1.70;;;15.60;99.00;;;;;;4960893;28;20034;-66
2021/12/31 09:59:54;;;;;;;3.97;1.80;;;15.50;98.90;;;;;;4960989;28;20042;-66
2021/12/31 10:02:33;;;;;;;2.85;1.95;;;15.60;98.90;;;;;;4961624;28;20038;-66
2021/12/31 10:05:01;;;;;;;3.67;2.22;;;15.60;98.80;;;;;;4962894;28;20916;-66
2021/12/31 10:07:29;;;;;;;4.80;2.40;;;15.70;98.80;;;;;;4959350;28;20142;-66
2021/12/31 10:10:08;;;;;;;7.13;2.15;;;15.70;98.80;;;;;;4959837;28;21887;-66
2021/12/31 10:12:44;;;;;;;3.70;2.20;;;15.70;98.80;;;;;;4960011;28;20051;-66
2021/12/31 10:15:10;;;;;;;4.53;2.65;;;15.70;98.80;;;;;;4959197;28;20490;-66
2021/12/31 10:17:36;;;;;;;5.45;2.45;;;15.70;98.80;;;;;;4957504;28;20038;-67
2021/12/31 10:20:02;;;;;;;5.60;2.55;;;15.70;98.90;;;;;;4958746;28;22580;-66
2021/12/31 10:22:27;;;;;;;6.00;2.50;;;15.70;98.80;;;;;;4957750;28;20538;-66
2021/12/31 10:24:53;;;;;;;4.32;2.40;;;15.70;98.80;;;;;;4959257;28;20026;-67
2021/12/31 10:27:20;;;;;;;3.88;2.50;;;15.70;98.80;;;;;;4961478;28;20026;-66
2021/12/31 10:30:03;;;;;;;6.95;3.33;;;15.70;98.70;;;;;;4960201;28;20022;-66
2021/12/31 10:32:36;;;;;;;4.20;2.10;;;15.70;98.70;;;;;;4959296;28;20494;-66
2021/12/31 10:35:20;;;;;;;3.42;2.03;;;15.70;98.70;;;;;;4956698;28;20089;-66
2021/12/31 10:37:52;;;;;;;5.65;2.40;;;15.70;98.70;;;;;;4959238;28;20019;-67
2021/12/31 10:40:31;;;;;;;5.55;2.58;;;15.70;98.70;;;;;;4958899;28;20039;-66
2021/12/31 10:43:16;;;;;;;2.53;1.85;;;15.60;98.60;;;;;;4960244;28;20450;-66
2021/12/31 10:46:08;;;;;;;2.97;2.00;;;15.60;98.60;;;;;;4958126;28;20042;-66
2021/12/31 10:48:52;;;;;;;2.83;1.92;;;15.60;98.60;;;;;;4956569;28;20070;-66
2021/12/31 10:51:39;;;;;;;3.35;1.75;;;15.60;98.60;;;;;;4957004;28;20034;-66
2021/12/31 10:54:36;;;;;;;7.78;3.17;;;15.60;98.60;;;;;;4959914;28;20125;-66
2021/12/31 10:57:02;;;;;;;3.60;2.10;;;15.60;98.60;;;;;;4955571;28;20234;-66
2021/12/31 10:59:33;;;;;;;3.30;1.98;;;15.60;98.60;;;;;;4957439;28;20771;-66
2021/12/31 11:01:58;;;;;;;2.63;2.10;;;15.60;98.60;;;;;;4958050;28;20050;-66
2021/12/31 11:04:28;;;;;;;3.28;2.00;;;15.50;98.50;;;;;;4958887;28;20077;-66
2021/12/31 11:06:55;;;;;;;3.78;2.25;;;15.50;98.50;;;;;;4958411;28;20062;-66
2021/12/31 11:09:23;;;;;;;5.65;2.10;;;15.60;98.50;;;;;;4956681;28;20034;-66
2021/12/31 11:11:49;;;;;;;3.35;1.80;;;15.50;98.50;;;;;;4957045;28;20893;-66
2021/12/31 11:14:16;;;;;;;5.07;2.28;;;15.50;98.50;;;;;;4958547;28;20042;-67
2021/12/31 11:16:42;;;;;;;3.85;1.92;;;15.50;98.50;;;;;;4956235;28;20613;-66
2021/12/31 11:19:10;;;;;;;2.95;1.83;;;15.50;98.50;;;;;;4957495;28;20035;-66
2021/12/31 11:21:36;;;;;;;4.63;2.30;;;15.50;98.40;;;;;;4956866;28;20022;-66
2021/12/31 11:24:32;;;;;;;4.53;2.10;;;15.60;98.50;;;;;;4955819;28;20055;-67
2021/12/31 11:27:26;;;;;;;4.90;1.67;;;15.60;98.50;;;;;;4956391;28;20473;-66
2021/12/31 11:29:53;;;;;;;2.83;1.70;;;15.60;98.50;;;;;;4956433;28;20141;-66
2021/12/31 11:32:19;;;;;;;3.25;1.70;;;15.60;98.40;;;;;;4957616;28;20046;-65
2021/12/31 11:35:04;;;;;;;4.68;2.65;;;15.60;98.40;;;;;;4959497;28;20031;-64
2021/12/31 11:37:43;;;;;;;3.33;1.75;;;15.60;98.40;;;;;;4955929;28;20034;-65
2021/12/31 11:40:25;;;;;;;2.47;1.65;;;15.60;98.40;;;;;;4957448;28;20050;-65
2021/12/31 11:43:22;;;;;;;3.08;2.10;;;15.60;98.40;;;;;;4956732;28;20023;-66
2021/12/31 11:46:10;;;;;;;2.80;1.85;;;15.60;98.40;;;;;;4957831;28;20023;-64
2021/12/31 11:48:45;;;;;;;5.40;2.13;;;15.60;98.40;;;;;;4956843;28;20035;-64
2021/12/31 11:51:12;;;;;;;3.13;2.10;;;15.60;98.40;;;;;;4957377;28;20039;-65
2021/12/31 11:53:56;;;;;;;3.63;2.08;;;15.60;98.30;;;;;;4956201;28;20047;-64
2021/12/31 11:56:36;;;;;;;4.72;1.92;;;15.60;98.30;;;;;;4956051;28;20118;-64
2021/12/31 11:59:10;;;;;;;2.75;1.75;;;15.60;98.30;;;;;;4956742;28;20573;-66
2021/12/31 12:01:36;;;;;;;3.17;1.55;;;15.60;98.20;;;;;;4956367;28;20136;-65
2021/12/31 12:04:22;;;;;;;3.25;1.80;;;15.60;98.20;;;;;;4957839;28;20050;-65
2021/12/31 12:07:05;;;;;;;4.10;1.80;;;15.60;98.20;;;;;;4954324;28;20069;-65
2021/12/31 12:09:36;;;;;;;3.80;1.42;;;15.60;98.20;;;;;;4957335;28;20364;-64
2021/12/31 12:12:04;;;;;;;2.85;1.80;;;15.60;98.20;;;;;;4954488;28;20023;-66
2021/12/31 12:14:38;;;;;;;2.75;1.85;;;15.60;98.20;;;;;;4955878;28;20065;-65
2021/12/31 12:17:04;;;;;;;5.53;2.72;;;15.60;98.20;;;;;;4954539;28;20045;-64
2021/12/31 12:19:53;;;;;;;3.95;2.10;;;15.60;98.20;;;;;;4955212;28;20030;-65
2021/12/31 12:22:26;;;;;;;3.88;1.80;;;15.60;98.20;;;;;;4955141;28;20045;-65
2021/12/31 12:24:52;;;;;;;3.55;2.00;;;15.60;98.10;;;;;;4956064;28;20153;-65
2021/12/31 12:27:20;;;;;;;4.38;2.00;;;15.60;98.20;;;;;;4952818;28;20035;-65
2021/12/31 12:29:46;;;;;;;4.35;2.33;;;15.60;98.10;;;;;;4957021;28;20038;-64
2021/12/31 12:32:13;;;;;;;4.03;2.40;;;15.60;98.10;;;;;;4956918;28;20062;-65
2021/12/31 12:34:38;;;;;;;4.95;2.25;;;15.70;98.10;;;;;;4956003;28;20038;-65
2021/12/31 12:37:04;;;;;;;5.35;2.55;;;15.70;98.00;;;;;;4962093;28;20046;-65
2021/12/31 12:39:30;;;;;;;6.38;1.90;;;15.70;98.00;;;;;;4959089;28;20031;-65
2021/12/31 12:41:56;;;;;;;4.78;2.55;;;15.70;98.00;;;;;;4955577;28;20482;-65
2021/12/31 12:44:22;;;;;;;4.15;2.30;;;15.70;97.90;;;;;;4957933;28;20027;-65
2021/12/31 12:46:58;;;;;;;3.58;2.40;;;15.70;97.90;;;;;;4956737;28;20034;-66
2021/12/31 12:49:26;;;;;;;3.10;2.05;;;15.80;97.80;;;;;;4960554;28;20065;-65
2021/12/31 12:51:54;;;;;;;2.83;1.73;;;15.80;97.80;;;;;;4956504;28;20046;-64